createdAt,value
2019-03-21T00:03:59.814Z,3.07
2019-03-21T00:09:08.962Z,2.76
2019-03-21T00:14:18.016Z,3.12
2019-03-21T00:19:27.139Z,2.55
2019-03-21T00:24:36.213Z,2.46
2019-03-21T00:29:45.353Z,2.89
2019-03-21T00:34:54.402Z,3.19
2019-03-21T00:40:03.495Z,2.97
2019-03-21T00:45:12.570Z,3.00
2019-03-21T00:50:21.688Z,2.84
2019-03-21T00:55:30.742Z,2.82
2019-03-21T01:00:39.862Z,2.56
2019-03-21T01:05:48.922Z,2.36
2019-03-21T01:10:58.113Z,2.32
2019-03-21T01:16:07.222Z,2.34
2019-03-21T01:21:16.341Z,2.84
2019-03-21T01:26:25.406Z,2.22
2019-03-21T01:31:34.610Z,2.86
2019-03-21T01:36:44.050Z,2.42
2019-03-21T01:41:53.181Z,2.16
2019-03-21T01:47:02.237Z,2.18
2019-03-21T01:52:11.479Z,2.56
2019-03-21T01:57:20.521Z,2.09
2019-03-21T02:02:30.646Z,2.46
2019-03-21T02:07:29.658Z,2.01
2019-03-21T02:12:38.796Z,2.21
2019-03-21T02:17:47.840Z,2.29
2019-03-21T02:22:57.096Z,2.37
2019-03-21T02:28:06.150Z,2.34
2019-03-21T02:33:15.288Z,2.36
2019-03-21T02:38:24.316Z,2.69
2019-03-21T02:43:33.539Z,2.66
2019-03-21T02:48:42.507Z,2.35
2019-03-21T02:53:51.865Z,2.43
2019-03-21T02:59:00.900Z,2.16
2019-03-21T03:04:10.130Z,1.97
2019-03-21T03:09:19.214Z,2.55
2019-03-21T03:14:28.346Z,2.80
2019-03-21T03:19:37.391Z,2.94
2019-03-21T03:24:46.535Z,3.08
2019-03-21T03:29:55.618Z,1.67
2019-03-21T03:35:04.758Z,1.51
2019-03-21T03:40:16.164Z,1.42
2019-03-21T03:45:15.633Z,1.40
2019-03-21T03:50:24.682Z,1.32
2019-03-21T03:55:33.934Z,1.29
2019-03-21T04:00:42.935Z,1.19
2019-03-21T04:05:52.080Z,1.26
2019-03-21T04:11:01.190Z,1.51
2019-03-21T04:16:10.323Z,1.90
2019-03-21T04:21:19.357Z,1.79
2019-03-21T04:26:28.501Z,2.33
2019-03-21T04:31:37.570Z,2.95
2019-03-21T04:36:46.707Z,4.58
2019-03-21T04:41:55.786Z,2.19
2019-03-21T04:47:04.915Z,1.81
2019-03-21T04:52:13.960Z,1.61
2019-03-21T04:57:23.091Z,1.81
2019-03-21T05:02:32.130Z,1.48
2019-03-21T05:07:41.230Z,1.94
2019-03-21T05:12:50.286Z,1.56
2019-03-21T05:17:59.402Z,1.54
2019-03-21T05:23:08.454Z,1.74
2019-03-21T05:28:17.650Z,1.89
2019-03-21T05:33:26.722Z,2.20
2019-03-21T05:38:35.827Z,2.04
2019-03-21T05:43:44.862Z,1.63
2019-03-21T05:48:54.012Z,1.81
2019-03-21T05:54:03.107Z,1.65
2019-03-21T05:59:13.232Z,1.32
2019-03-21T06:04:12.223Z,1.49
2019-03-21T06:09:21.337Z,1.57
2019-03-21T06:14:30.394Z,1.57
2019-03-21T06:19:39.501Z,1.40
2019-03-21T06:24:48.598Z,1.58
2019-03-21T06:29:57.737Z,1.47
2019-03-21T06:35:06.790Z,2.03
2019-03-21T06:40:16.518Z,2.19
2019-03-21T06:45:25.543Z,1.94
2019-03-21T06:50:34.728Z,2.47
2019-03-21T06:55:43.957Z,2.19
2019-03-21T07:00:53.127Z,2.48
2019-03-21T07:06:02.171Z,2.23
2019-03-21T07:11:11.400Z,2.32
2019-03-21T07:16:20.495Z,2.36
2019-03-21T07:21:29.601Z,2.54
2019-03-21T07:26:38.674Z,2.21
2019-03-21T07:31:47.813Z,2.51
2019-03-21T07:36:56.822Z,2.92
2019-03-21T07:42:05.943Z,2.99
2019-03-21T07:47:14.986Z,2.55
2019-03-21T07:52:24.181Z,2.81
2019-03-21T07:57:33.234Z,2.59
2019-03-21T08:02:42.570Z,2.76
2019-03-21T08:07:51.653Z,2.59
2019-03-21T08:13:00.767Z,2.92
2019-03-21T08:18:09.838Z,2.83
2019-03-21T08:23:18.991Z,2.50
2019-03-21T08:28:28.070Z,3.01
2019-03-21T08:33:37.192Z,2.73
2019-03-21T08:38:46.225Z,3.10
2019-03-21T08:43:55.348Z,2.23
2019-03-21T08:49:04.390Z,2.73
2019-03-21T08:54:13.857Z,3.35
2019-03-21T08:59:22.926Z,3.48
2019-03-21T09:04:32.078Z,2.51
2019-03-21T09:09:41.096Z,3.18
2019-03-21T09:14:50.221Z,2.59
2019-03-21T09:19:59.302Z,3.00
2019-03-21T09:25:08.511Z,2.57
2019-03-21T09:30:17.605Z,2.19
2019-03-21T09:35:26.739Z,2.82
2019-03-21T09:45:41.639Z,2.55
2019-03-21T09:50:50.674Z,2.78
2019-03-21T09:56:01.189Z,2.58
2019-03-21T10:01:08.383Z,2.30
2019-03-21T10:06:17.574Z,2.23
2019-03-21T10:11:26.646Z,1.94
2019-03-21T10:16:35.798Z,1.62
2019-03-21T10:21:44.889Z,1.72
2019-03-21T10:26:54.002Z,1.36
2019-03-21T10:32:13.653Z,1.37
2019-03-21T10:37:12.155Z,1.53
2019-03-21T10:42:21.297Z,1.58
2019-03-21T10:47:30.430Z,1.56
2019-03-21T10:52:39.462Z,1.76
2019-03-21T10:57:48.593Z,1.66
2019-03-21T11:02:57.730Z,1.34
2019-03-21T11:08:06.803Z,1.97
2019-03-21T11:13:15.865Z,1.27
2019-03-21T11:18:35.479Z,1.78
2019-03-21T11:23:33.563Z,1.36
2019-03-21T11:28:42.699Z,1.24
2019-03-21T11:33:51.755Z,1.22
2019-03-21T11:39:00.894Z,0.62
2019-03-21T11:44:09.976Z,0.91
2019-03-21T11:49:19.088Z,0.71
2019-03-21T11:54:28.129Z,0.60
2019-03-21T11:59:50.800Z,0.51
2019-03-21T12:04:46.086Z,0.53
2019-03-21T12:09:55.694Z,0.43
2019-03-21T12:15:04.829Z,0.44
2019-03-21T12:20:13.895Z,0.58
2019-03-21T12:25:22.942Z,0.37
2019-03-21T12:30:32.056Z,0.45
2019-03-21T12:35:41.257Z,0.40
2019-03-21T12:40:50.426Z,0.35
2019-03-21T12:45:59.481Z,0.44
2019-03-21T12:51:08.642Z,0.41
2019-03-21T12:56:17.650Z,0.54
2019-03-21T13:01:26.806Z,0.35
2019-03-21T13:06:35.892Z,0.21
2019-03-21T13:11:45.020Z,0.35
2019-03-21T13:16:54.078Z,0.24
2019-03-21T13:22:03.326Z,0.25
2019-03-21T13:27:12.430Z,0.27
2019-03-21T13:32:21.654Z,0.47
2019-03-21T13:37:32.371Z,0.39
2019-03-21T13:42:42.390Z,0.48
2019-03-21T13:47:41.442Z,0.70
2019-03-21T13:52:50.668Z,1.04
2019-03-21T13:57:59.762Z,0.37
2019-03-21T14:03:08.894Z,0.61
2019-03-21T14:08:17.974Z,0.46
2019-03-21T14:13:27.126Z,0.57
2019-03-21T14:18:36.177Z,0.47
2019-03-21T14:23:45.254Z,0.53
2019-03-21T14:28:54.270Z,0.44
2019-03-21T14:34:03.334Z,0.97
2019-03-21T14:39:12.438Z,0.45
2019-03-21T14:44:21.557Z,0.46
2019-03-21T14:49:30.605Z,0.51
2019-03-21T14:54:40.026Z,0.48
2019-03-21T14:59:49.033Z,0.41
2019-03-21T15:04:58.103Z,0.29
2019-03-21T15:10:07.152Z,0.38
2019-03-21T15:15:16.217Z,0.22
2019-03-21T15:20:25.302Z,0.22
2019-03-21T15:25:34.363Z,0.24
2019-03-21T15:30:43.491Z,0.22
2019-03-21T15:35:52.619Z,0.17
2019-03-21T15:41:01.810Z,0.33
2019-03-21T15:46:10.903Z,0.21
2019-03-21T15:51:20.412Z,0.30
2019-03-21T15:56:29.455Z,0.23
2019-03-21T16:01:38.605Z,0.25
2019-03-21T16:06:47.818Z,0.32
2019-03-21T16:12:00.365Z,0.28
2019-03-21T16:16:59.357Z,0.27
2019-03-21T16:22:08.755Z,0.28
2019-03-21T16:27:18.315Z,0.32
2019-03-21T16:32:27.530Z,0.47
2019-03-21T16:37:36.585Z,0.75
2019-03-21T16:42:45.804Z,0.45
2019-03-21T16:47:54.861Z,1.08
2019-03-21T16:53:04.026Z,0.75
2019-03-21T16:58:13.081Z,0.60
2019-03-21T17:03:22.214Z,0.89
2019-03-21T17:08:31.388Z,1.96
2019-03-21T17:13:40.546Z,1.34
2019-03-21T17:18:49.666Z,1.36
2019-03-21T17:23:58.799Z,1.03
2019-03-21T17:29:07.854Z,1.30
2019-03-21T17:34:16.915Z,0.74
2019-03-21T17:39:26.092Z,1.23
2019-03-21T17:44:35.278Z,1.31
2019-03-21T17:49:44.313Z,1.05
2019-03-21T17:54:53.485Z,1.29
2019-03-21T18:00:02.592Z,0.84
2019-03-21T18:05:11.741Z,1.26
2019-03-21T18:10:20.834Z,0.98
2019-03-21T18:15:29.979Z,1.17
2019-03-21T18:20:39.046Z,1.44
2019-03-21T18:25:48.191Z,1.34
2019-03-21T18:30:57.304Z,1.67
2019-03-21T18:36:06.436Z,1.95
2019-03-21T18:41:15.508Z,1.24
2019-03-21T18:46:24.862Z,1.16
2019-03-21T18:51:33.897Z,1.46
2019-03-21T18:56:43.324Z,1.34
2019-03-21T19:01:58.568Z,1.12
2019-03-21T19:07:01.052Z,0.99
2019-03-21T19:12:10.062Z,0.86
2019-03-21T19:17:19.210Z,1.00
2019-03-21T19:22:28.290Z,0.68
2019-03-21T19:27:37.409Z,0.49
2019-03-21T19:32:46.483Z,0.59
2019-03-21T19:37:55.654Z,0.56
2019-03-21T19:43:04.698Z,0.59
2019-03-21T19:48:13.840Z,0.65
2019-03-21T19:53:22.914Z,0.50
2019-03-21T19:58:32.038Z,0.52
2019-03-21T20:03:41.111Z,0.54
2019-03-21T20:08:50.414Z,0.73
2019-03-21T20:13:59.638Z,0.78
2019-03-21T20:19:07.374Z,1.11
2019-03-21T20:24:16.427Z,0.71
2019-03-21T20:29:25.582Z,0.76
2019-03-21T20:34:34.662Z,0.81
2019-03-21T20:39:43.782Z,0.88
2019-03-21T20:44:52.859Z,0.81
2019-03-21T20:50:02.001Z,0.60
2019-03-21T20:55:11.110Z,0.63
2019-03-21T21:00:20.256Z,0.73
2019-03-21T21:05:29.322Z,0.65
2019-03-21T21:10:38.418Z,0.61
2019-03-21T21:15:47.486Z,0.60
2019-03-21T21:20:56.562Z,0.42
2019-03-21T21:26:05.976Z,0.37
2019-03-21T21:31:23.510Z,0.38
2019-03-21T21:36:22.886Z,0.30
2019-03-21T21:41:31.949Z,0.29
2019-03-21T21:46:41.203Z,0.21
2019-03-21T21:51:50.239Z,0.18
2019-03-21T21:56:59.399Z,0.21
2019-03-21T22:02:06.974Z,0.18
2019-03-21T22:07:16.083Z,0.27
2019-03-21T22:12:25.134Z,0.15
2019-03-21T22:17:34.286Z,0.16
2019-03-21T22:22:43.308Z,0.14
2019-03-21T22:27:52.438Z,0.19
2019-03-21T22:33:01.511Z,0.22
2019-03-21T22:38:10.655Z,0.19
2019-03-21T22:43:19.752Z,0.15
2019-03-21T22:48:29.162Z,0.30
2019-03-21T22:53:38.226Z,0.21
2019-03-21T22:58:47.350Z,0.31
2019-03-21T23:03:56.402Z,0.20
2019-03-21T23:09:05.898Z,0.35
2019-03-21T23:14:15.003Z,0.35
2019-03-21T23:19:24.578Z,0.32
2019-03-21T23:24:33.629Z,0.37
2019-03-21T23:29:42.767Z,0.35
2019-03-21T23:34:51.818Z,0.33
2019-03-21T23:40:00.981Z,0.62
2019-03-21T23:45:10.039Z,0.53
2019-03-21T23:50:19.294Z,0.56
2019-03-21T23:55:28.339Z,0.42
